Van Horn's Hourly Summary for Friday, October 23, 2020
Hour Temp
(f)
RH
(%)
Solar Rad.
(MJ/m2)
Rainfall
(in)
Wind
(mph)
Battery
(volts)
10/23/2020 12:00 AM 58 28 0 0 5.13 0
10/23/2020 1:00 AM 57 27 0 0 4.86 0
10/23/2020 2:00 AM 54 30 0 0 2.64 0
10/23/2020 3:00 AM 53 33 0 0 4.11 0
10/23/2020 4:00 AM 52 34 0 0 6.64 0
10/23/2020 5:00 AM 52 34 0 0 4.82 0
10/23/2020 6:00 AM 51 36 0 0 5.48 0
10/23/2020 7:00 AM 47 40 0 0 4.82 0
10/23/2020 8:00 AM 49 39 0.06 0 4.99 0
10/23/2020 9:00 AM 58 44 0.23 0 5.67 0
10/23/2020 10:00 AM 58 46 0.41 0 8.52 0
10/23/2020 11:00 AM 58 42 0.55 0 11.33 0
10/23/2020 12:00 PM 60 37 0.64 0 12.97 0
10/23/2020 1:00 PM 61 36 0.67 0 10.27 0
10/23/2020 2:00 PM 61 36 0.65 0 13.08 0
10/23/2020 3:00 PM 62 36 0.56 0 13.65 0
10/23/2020 4:00 PM 61 36 0.43 0 12.73 0
10/23/2020 5:00 PM 61 39 0.26 0 12.37 0
10/23/2020 6:00 PM 58 41 0.07 0 13.05 0
10/23/2020 7:00 PM 55 46 0 0 11.44 0
10/23/2020 8:00 PM 53 49 0 0 10.23 0
10/23/2020 9:00 PM 52 51 0 0 9.47 0
10/23/2020 10:00 PM 51 53 0 0 5.69 0
10/23/2020 11:00 PM 50 55 0 0 4.78 0
Data Summary 55 39 4.53 0.00 8.28 0.00